Terminal Aerodrome Forecast
Issued by NWS Springfield, MO

Home | Current Version | Previous Version | Text Only | Print | Product List | Glossary On
Versions: 1 2 3 4 5 6 7 8 9 10 11 12 13 14 15 16 17 18 19 20 21 22 23 24 25 26 27 28 29 30 31 32 33 34 35
731
FTUS43 KSGF 212320
TAFSGF
TAF
KSGF 212320Z 2200/2224 VRB04KT P6SM OVC080
     FM220200 11006KT P6SM VCSH OVC070
     FM220400 11006KT 6SM -RA BR OVC040
     FM220800 08005KT 1 1/2SM -RA BR OVC008
     FM221100 35006KT 2SM -RA BR OVC003
     FM221400 36011G19KT 2SM -RA BR OVC006
     FM222000 34018G26KT P6SM OVC050=

USA.gov is the U.S. government's official web portal to all federal, state and local government web resources and services.